Nearby METAR Reports

Actuele Vliegveldwaarnemingen NL (METAR).Zie KNMI uitleg METAR hier

EHAM - Amsterdam/Schiph, Netherlands
Distance from station: ONO 18km
Updated: 15/07/2020 01:55
Few Clouds
Few Clouds
 Wind van WNW
Wind: WNW 7 km/h
Temperatuur: 12°C
Dauwpunt: 10°C
Vochtigheid: 88%
Barometer: 1014 hPa
Clouds: Few Clouds
Visibility: 10 km
Cloud details: Few Clouds 640 m
2020/07/14 23:55 EHAM 142355Z 30004KT 9999 FEW021 12/10 Q1014 NOSIG
EHKD - DE KOOY/DE KOOY
Updated: 15/07/2020 01:55
Meestal bewolkt
Meestal bewolkt
 Wind van WNW
Wind: WNW 11 km/h
Temperatuur: 14°C
Dauwpunt: 10°C
Vochtigheid: 77%
Clouds: Meestal bewolkt
Visibility: 10 km
Cloud details: Meestal bewolkt 610 m
Meestal bewolkt 732 m
Meestal bewolkt 1219 m
2020/07/14 23:55 EHKD 142355Z AUTO 30006KT 260V330 9999 BKN020 BKN024 BKN040 14/10 Q10
 
EHLW - LEEUWARDEN/LEEUWARDEN
Updated: 15/07/2020 01:55
Meestal bewolkt
Meestal bewolkt
 Wind van ZW
Wind: ZW 6 km/h
Temperatuur: 12°C
Dauwpunt: 11°C
Vochtigheid: 94%
Barometer: 1013 hPa
Clouds: Meestal bewolkt
Visibility: 10 km
Cloud details: Few Clouds 1402 m
Meestal bewolkt 1585 m
2020/07/14 23:55 EHLW 142355Z AUTO 23003KT 9999 FEW046 BKN052 12/11 Q1013 BLU
EHVK - VOLKEL/VOLKEL
Updated: 15/07/2020 01:55
Zwaar bewolkt
Zwaar bewolkt
 Wind van varies
Wind: varies 4 km/h
Temperatuur: 14°C
Dauwpunt: 12°C
Vochtigheid: 88%
Barometer: 1014 hPa
Clouds: Zwaar bewolkt
Visibility: 10 km
Cloud details: Zwaar bewolkt 4267 m
2020/07/14 23:55 EHVK 142355Z AUTO VRB02KT 9999 OVC140 14/12 Q1014 BLU
 
EHFS - VLISSINGEN
Updated: 15/07/2020 01:25
Meestal bewolkt
Meestal bewolkt
 Wind van N
Wind: N 6 km/h
Temperatuur: 15°C
Dauwpunt: 10°C
Vochtigheid: 72%
Barometer: 1015 hPa
Clouds: Meestal bewolkt
Visibility: 10 km
Cloud details: Few Clouds 1036 m
Meestal bewolkt 1189 m
Meestal bewolkt 1311 m
2020/07/14 23:25 EHFS 142325Z AUTO 36003KT 330V030 9999 FEW034/// BKN039/// BKN043/// 15/10 Q1015
EHEH - EINDHOVEN/EINDHOVEN
Updated: 15/07/2020 01:55
Zwaar bewolkt
Zwaar bewolkt
 Wind van varies
Wind: varies 4 km/h
Temperatuur: 14°C
Dauwpunt: 12°C
Vochtigheid: 88%
Barometer: 1014 hPa
Clouds: Zwaar bewolkt
Visibility: 10 km
Cloud details: Gedeeltelijk bewolkt 2316 m
Zwaar bewolkt 4267 m
2020/07/14 23:55 EHEH 142355Z AUTO VRB02KT 9999 SCT076 OVC140 14/12 Q1014 BLU
 
EHGR - GILZE-RIJEN/GILZE-RIJEN
Updated: 15/07/2020 01:55
Zwaar bewolkt
Zwaar bewolkt
 Wind van varies
Wind: varies 2 km/h
Temperatuur: 13°C
Dauwpunt: 11°C
Vochtigheid: 88%
Barometer: 1014 hPa
Clouds: Zwaar bewolkt
Visibility: 10 km
Cloud details: Zwaar bewolkt 4572 m
2020/07/14 23:55 EHGR 142355Z AUTO VRB01KT 9999 OVC150 13/11 Q1014 BLU
EHDL - ARNHEM/DEELEN
Updated: 15/07/2020 01:55
Mist, Zwaar bewolkt
Mist, Zwaar bewolkt
 Wind van W
Wind: W 4 km/h
Temperatuur: 12°C
Dauwpunt: 12°C
Vochtigheid: 100%
Barometer: 1014 hPa
Overzicht: Mist
Clouds: Zwaar bewolkt
Visibility: 8 km
Cloud details: Zwaar bewolkt 4572 m
2020/07/14 23:55 EHDL 142355Z AUTO 26002KT 8000 BR OVC150 12/12 Q1014 BLU
 
EHBK - MAASTRICHT/MAASTRICHT-AACHEN
Updated: 15/07/2020 01:55
Meestal bewolkt
Meestal bewolkt
 Wind van WNW
Wind: WNW 6 km/h
Temperatuur: 14°C
Dauwpunt: 14°C
Vochtigheid: 100%
Barometer: 1014 hPa
Clouds: Meestal bewolkt
Visibility: 9 km
Cloud details: Few Clouds 183 m
Gedeeltelijk bewolkt 274 m
Meestal bewolkt 1006 m
2020/07/14 23:55 EHBK 142355Z AUTO 30003KT 250V340 9000 FEW006 SCT009 BKN033 14/14 Q1014